sensor_id;sensor_type;location;lat;lon;timestamp;temperature;humidity
45044;DHT22;30784;48.490;9.688;2022-12-29T00:00:12;8.50;58.30
45044;DHT22;30784;48.490;9.688;2022-12-29T00:02:38;8.50;58.30
45044;DHT22;30784;48.490;9.688;2022-12-29T00:05:06;8.50;58.30
45044;DHT22;30784;48.490;9.688;2022-12-29T00:07:32;8.60;58.20
45044;DHT22;30784;48.490;9.688;2022-12-29T00:09:58;8.60;58.20
45044;DHT22;30784;48.490;9.688;2022-12-29T00:12:26;8.60;58.10
45044;DHT22;30784;48.490;9.688;2022-12-29T00:15:17;8.60;58.00
45044;DHT22;30784;48.490;9.688;2022-12-29T00:18:02;8.70;58.00
45044;DHT22;30784;48.490;9.688;2022-12-29T00:20:28;8.70;57.90
45044;DHT22;30784;48.490;9.688;2022-12-29T00:23:12;8.80;57.90
45044;DHT22;30784;48.490;9.688;2022-12-29T00:25:56;8.80;57.80
45044;DHT22;30784;48.490;9.688;2022-12-29T00:28:51;8.80;57.70
45044;DHT22;30784;48.490;9.688;2022-12-29T00:31:35;8.90;57.60
45044;DHT22;30784;48.490;9.688;2022-12-29T00:34:19;8.80;57.60
45044;DHT22;30784;48.490;9.688;2022-12-29T00:37:03;8.90;57.50
45044;DHT22;30784;48.490;9.688;2022-12-29T00:39:29;8.90;57.50
45044;DHT22;30784;48.490;9.688;2022-12-29T00:42:13;8.90;57.40
45044;DHT22;30784;48.490;9.688;2022-12-29T00:44:57;8.90;57.30
45044;DHT22;30784;48.490;9.688;2022-12-29T00:47:22;8.90;57.30
45044;DHT22;30784;48.490;9.688;2022-12-29T00:49:48;8.90;57.10
45044;DHT22;30784;48.490;9.688;2022-12-29T00:52:13;8.90;57.10
45044;DHT22;30784;48.490;9.688;2022-12-29T00:54:40;8.90;57.10
45044;DHT22;30784;48.490;9.688;2022-12-29T00:57:08;8.90;57.00
45044;DHT22;30784;48.490;9.688;2022-12-29T00:59:39;8.90;57.00
45044;DHT22;30784;48.490;9.688;2022-12-29T01:02:05;8.90;57.00
45044;DHT22;30784;48.490;9.688;2022-12-29T01:04:30;8.90;57.00
45044;DHT22;30784;48.490;9.688;2022-12-29T01:06:56;8.90;57.20
45044;DHT22;30784;48.490;9.688;2022-12-29T01:09:21;8.90;57.00
45044;DHT22;30784;48.490;9.688;2022-12-29T01:12:07;8.90;57.00
45044;DHT22;30784;48.490;9.688;2022-12-29T01:14:33;8.90;56.90
45044;DHT22;30784;48.490;9.688;2022-12-29T01:16:58;8.90;56.90
45044;DHT22;30784;48.490;9.688;2022-12-29T01:19:24;8.90;56.80
45044;DHT22;30784;48.490;9.688;2022-12-29T01:21:50;8.90;56.70
45044;DHT22;30784;48.490;9.688;2022-12-29T01:24:17;8.90;56.80
45044;DHT22;30784;48.490;9.688;2022-12-29T01:26:43;8.90;56.70
45044;DHT22;30784;48.490;9.688;2022-12-29T01:29:09;8.80;56.70
45044;DHT22;30784;48.490;9.688;2022-12-29T01:31:34;8.90;56.60
45044;DHT22;30784;48.490;9.688;2022-12-29T01:34:00;8.90;56.60
45044;DHT22;30784;48.490;9.688;2022-12-29T01:36:26;8.80;56.60
45044;DHT22;30784;48.490;9.688;2022-12-29T01:38:52;8.80;56.60
45044;DHT22;30784;48.490;9.688;2022-12-29T01:41:17;8.80;56.60
45044;DHT22;30784;48.490;9.688;2022-12-29T01:43:52;8.80;56.60
45044;DHT22;30784;48.490;9.688;2022-12-29T01:48:59;8.80;56.50
45044;DHT22;30784;48.490;9.688;2022-12-29T01:51:26;8.80;56.60
45044;DHT22;30784;48.490;9.688;2022-12-29T01:53:55;8.80;56.60
45044;DHT22;30784;48.490;9.688;2022-12-29T01:56:21;8.80;56.50
45044;DHT22;30784;48.490;9.688;2022-12-29T01:58:50;8.80;56.60
45044;DHT22;30784;48.490;9.688;2022-12-29T02:01:19;8.80;56.50
45044;DHT22;30784;48.490;9.688;2022-12-29T02:03:46;8.80;56.60
45044;DHT22;30784;48.490;9.688;2022-12-29T02:06:22;8.80;56.50
45044;DHT22;30784;48.490;9.688;2022-12-29T02:08:50;8.70;56.40
45044;DHT22;30784;48.490;9.688;2022-12-29T02:11:18;8.80;56.50
45044;DHT22;30784;48.490;9.688;2022-12-29T02:13:44;8.80;56.50
45044;DHT22;30784;48.490;9.688;2022-12-29T02:22:02;8.80;56.40
45044;DHT22;30784;48.490;9.688;2022-12-29T02:30:13;8.80;56.20
45044;DHT22;30784;48.490;9.688;2022-12-29T02:32:56;8.80;56.20
45044;DHT22;30784;48.490;9.688;2022-12-29T02:35:44;8.80;56.20
45044;DHT22;30784;48.490;9.688;2022-12-29T02:41:22;8.80;56.30
45044;DHT22;30784;48.490;9.688;2022-12-29T02:43:59;8.80;56.10
45044;DHT22;30784;48.490;9.688;2022-12-29T02:49:27;8.80;56.20
45044;DHT22;30784;48.490;9.688;2022-12-29T02:52:17;8.80;55.90
45044;DHT22;30784;48.490;9.688;2022-12-29T02:54:43;8.80;56.10
45044;DHT22;30784;48.490;9.688;2022-12-29T02:57:12;8.80;55.90
45044;DHT22;30784;48.490;9.688;2022-12-29T02:59:40;8.80;55.70
45044;DHT22;30784;48.490;9.688;2022-12-29T03:02:24;8.80;55.70
45044;DHT22;30784;48.490;9.688;2022-12-29T03:08:23;8.80;55.80
45044;DHT22;30784;48.490;9.688;2022-12-29T03:11:00;8.90;55.70
45044;DHT22;30784;48.490;9.688;2022-12-29T03:13:49;8.90;55.40
45044;DHT22;30784;48.490;9.688;2022-12-29T03:16:50;8.90;55.40
45044;DHT22;30784;48.490;9.688;2022-12-29T03:19:25;8.90;55.40
45044;DHT22;30784;48.490;9.688;2022-12-29T03:21:57;8.80;55.40
45044;DHT22;30784;48.490;9.688;2022-12-29T03:24:54;8.80;55.30
45044;DHT22;30784;48.490;9.688;2022-12-29T03:27:29;8.80;55.30
45044;DHT22;30784;48.490;9.688;2022-12-29T03:29:59;8.80;55.20
45044;DHT22;30784;48.490;9.688;2022-12-29T03:32:33;8.80;55.30
45044;DHT22;30784;48.490;9.688;2022-12-29T03:35:00;8.80;55.30
45044;DHT22;30784;48.490;9.688;2022-12-29T03:37:32;8.80;55.40
45044;DHT22;30784;48.490;9.688;2022-12-29T03:40:00;8.80;55.50
45044;DHT22;30784;48.490;9.688;2022-12-29T03:42:28;8.80;55.40
45044;DHT22;30784;48.490;9.688;2022-12-29T03:44:56;8.80;55.40
45044;DHT22;30784;48.490;9.688;2022-12-29T03:47:22;8.80;55.80
45044;DHT22;30784;48.490;9.688;2022-12-29T03:49:49;8.80;55.40
45044;DHT22;30784;48.490;9.688;2022-12-29T03:52:15;8.80;55.40
45044;DHT22;30784;48.490;9.688;2022-12-29T03:54:41;8.80;55.40
45044;DHT22;30784;48.490;9.688;2022-12-29T03:57:06;8.80;55.30
45044;DHT22;30784;48.490;9.688;2022-12-29T03:59:32;8.80;55.30
45044;DHT22;30784;48.490;9.688;2022-12-29T04:01:57;8.80;55.10
45044;DHT22;30784;48.490;9.688;2022-12-29T04:04:23;8.80;55.10
45044;DHT22;30784;48.490;9.688;2022-12-29T04:06:48;8.90;55.10
45044;DHT22;30784;48.490;9.688;2022-12-29T04:09:14;8.80;55.10
45044;DHT22;30784;48.490;9.688;2022-12-29T04:11:39;8.70;55.10
45044;DHT22;30784;48.490;9.688;2022-12-29T04:14:05;8.80;55.00
45044;DHT22;30784;48.490;9.688;2022-12-29T04:16:30;8.80;55.10
45044;DHT22;30784;48.490;9.688;2022-12-29T04:18:56;8.70;55.10
45044;DHT22;30784;48.490;9.688;2022-12-29T04:21:22;8.70;55.00
45044;DHT22;30784;48.490;9.688;2022-12-29T04:23:47;8.70;55.00
45044;DHT22;30784;48.490;9.688;2022-12-29T04:26:13;8.70;55.00
45044;DHT22;30784;48.490;9.688;2022-12-29T04:28:38;8.70;55.00
45044;DHT22;30784;48.490;9.688;2022-12-29T04:31:04;8.70;55.10
45044;DHT22;30784;48.490;9.688;2022-12-29T04:33:30;8.60;55.00
45044;DHT22;30784;48.490;9.688;2022-12-29T04:35:56;8.60;55.00
45044;DHT22;30784;48.490;9.688;2022-12-29T04:38:23;8.60;55.10
45044;DHT22;30784;48.490;9.688;2022-12-29T04:40:49;8.60;55.00
45044;DHT22;30784;48.490;9.688;2022-12-29T04:43:16;8.60;55.00
45044;DHT22;30784;48.490;9.688;2022-12-29T04:45:48;8.60;55.00
45044;DHT22;30784;48.490;9.688;2022-12-29T04:48:13;8.50;55.00
45044;DHT22;30784;48.490;9.688;2022-12-29T04:50:40;8.50;55.10
45044;DHT22;30784;48.490;9.688;2022-12-29T04:53:05;8.50;55.10
45044;DHT22;30784;48.490;9.688;2022-12-29T04:55:31;8.50;55.10
45044;DHT22;30784;48.490;9.688;2022-12-29T04:57:57;8.40;55.10
45044;DHT22;30784;48.490;9.688;2022-12-29T05:00:22;8.50;55.30
45044;DHT22;30784;48.490;9.688;2022-12-29T05:02:48;8.50;55.20
45044;DHT22;30784;48.490;9.688;2022-12-29T05:05:14;8.50;55.30
45044;DHT22;30784;48.490;9.688;2022-12-29T05:07:39;8.50;55.20
45044;DHT22;30784;48.490;9.688;2022-12-29T05:10:06;8.50;55.20
45044;DHT22;30784;48.490;9.688;2022-12-29T05:12:33;8.50;55.20
45044;DHT22;30784;48.490;9.688;2022-12-29T05:14:59;8.50;55.20
45044;DHT22;30784;48.490;9.688;2022-12-29T05:17:25;8.50;55.10
45044;DHT22;30784;48.490;9.688;2022-12-29T05:19:50;8.50;55.10
45044;DHT22;30784;48.490;9.688;2022-12-29T05:22:16;8.50;55.20
45044;DHT22;30784;48.490;9.688;2022-12-29T05:24:41;8.40;55.10
45044;DHT22;30784;48.490;9.688;2022-12-29T05:27:07;8.50;55.00
45044;DHT22;30784;48.490;9.688;2022-12-29T05:29:33;8.40;55.10
45044;DHT22;30784;48.490;9.688;2022-12-29T05:31:58;8.40;55.10
45044;DHT22;30784;48.490;9.688;2022-12-29T05:34:24;8.40;55.10
45044;DHT22;30784;48.490;9.688;2022-12-29T05:36:49;8.40;55.10
45044;DHT22;30784;48.490;9.688;2022-12-29T05:39:15;8.40;55.10
45044;DHT22;30784;48.490;9.688;2022-12-29T05:41:40;8.40;55.20
45044;DHT22;30784;48.490;9.688;2022-12-29T05:44:06;8.30;55.10
45044;DHT22;30784;48.490;9.688;2022-12-29T05:46:31;8.30;55.20
45044;DHT22;30784;48.490;9.688;2022-12-29T05:48:57;8.30;55.20
45044;DHT22;30784;48.490;9.688;2022-12-29T05:51:23;8.30;55.40
45044;DHT22;30784;48.490;9.688;2022-12-29T05:53:49;8.30;55.40
45044;DHT22;30784;48.490;9.688;2022-12-29T05:56:14;8.30;55.40
45044;DHT22;30784;48.490;9.688;2022-12-29T05:58:40;8.30;55.50
45044;DHT22;30784;48.490;9.688;2022-12-29T06:01:05;8.20;55.50
45044;DHT22;30784;48.490;9.688;2022-12-29T06:03:31;8.20;55.60
45044;DHT22;30784;48.490;9.688;2022-12-29T06:05:56;8.20;55.60
45044;DHT22;30784;48.490;9.688;2022-12-29T06:08:22;8.20;55.70
45044;DHT22;30784;48.490;9.688;2022-12-29T06:10:47;8.20;55.80
45044;DHT22;30784;48.490;9.688;2022-12-29T06:13:13;8.20;55.80
45044;DHT22;30784;48.490;9.688;2022-12-29T06:15:38;8.20;55.90
45044;DHT22;30784;48.490;9.688;2022-12-29T06:18:04;8.20;55.90
45044;DHT22;30784;48.490;9.688;2022-12-29T06:20:30;8.20;56.00
45044;DHT22;30784;48.490;9.688;2022-12-29T06:22:55;8.20;56.00
45044;DHT22;30784;48.490;9.688;2022-12-29T06:25:21;8.20;56.00
45044;DHT22;30784;48.490;9.688;2022-12-29T06:27:46;8.20;56.00
45044;DHT22;30784;48.490;9.688;2022-12-29T06:30:12;8.30;56.10
45044;DHT22;30784;48.490;9.688;2022-12-29T06:32:38;8.30;56.10
45044;DHT22;30784;48.490;9.688;2022-12-29T06:35:04;8.30;56.10
45044;DHT22;30784;48.490;9.688;2022-12-29T06:37:31;8.30;56.10
45044;DHT22;30784;48.490;9.688;2022-12-29T06:39:57;8.30;56.10
45044;DHT22;30784;48.490;9.688;2022-12-29T06:42:22;8.30;56.10
45044;DHT22;30784;48.490;9.688;2022-12-29T06:44:48;8.30;56.10
45044;DHT22;30784;48.490;9.688;2022-12-29T06:47:14;8.30;56.10
45044;DHT22;30784;48.490;9.688;2022-12-29T06:49:39;8.30;56.10
45044;DHT22;30784;48.490;9.688;2022-12-29T06:52:05;8.30;56.10
45044;DHT22;30784;48.490;9.688;2022-12-29T06:54:31;8.30;56.20
45044;DHT22;30784;48.490;9.688;2022-12-29T06:56:56;8.30;56.20
45044;DHT22;30784;48.490;9.688;2022-12-29T06:59:22;8.30;56.20
45044;DHT22;30784;48.490;9.688;2022-12-29T07:01:48;8.30;56.30
45044;DHT22;30784;48.490;9.688;2022-12-29T07:04:13;8.30;56.30
45044;DHT22;30784;48.490;9.688;2022-12-29T07:06:39;8.20;56.30
45044;DHT22;30784;48.490;9.688;2022-12-29T07:09:06;8.30;56.50
45044;DHT22;30784;48.490;9.688;2022-12-29T07:11:32;8.30;56.50
45044;DHT22;30784;48.490;9.688;2022-12-29T07:13:58;8.30;56.70
45044;DHT22;30784;48.490;9.688;2022-12-29T07:16:24;8.30;56.80
45044;DHT22;30784;48.490;9.688;2022-12-29T07:18:50;8.40;57.00
45044;DHT22;30784;48.490;9.688;2022-12-29T07:21:17;8.40;57.40
45044;DHT22;30784;48.490;9.688;2022-12-29T07:23:42;8.40;57.30
45044;DHT22;30784;48.490;9.688;2022-12-29T07:26:11;8.50;57.40
45044;DHT22;30784;48.490;9.688;2022-12-29T07:28:37;8.50;57.50
45044;DHT22;30784;48.490;9.688;2022-12-29T07:31:04;8.50;57.50
45044;DHT22;30784;48.490;9.688;2022-12-29T07:33:30;8.60;57.60
45044;DHT22;30784;48.490;9.688;2022-12-29T07:35:56;8.60;57.50
45044;DHT22;30784;48.490;9.688;2022-12-29T07:38:22;8.70;57.50
45044;DHT22;30784;48.490;9.688;2022-12-29T07:40:47;8.70;57.50
45044;DHT22;30784;48.490;9.688;2022-12-29T07:43:13;8.80;57.40
45044;DHT22;30784;48.490;9.688;2022-12-29T07:45:38;8.90;57.70
45044;DHT22;30784;48.490;9.688;2022-12-29T07:48:05;8.90;57.40
45044;DHT22;30784;48.490;9.688;2022-12-29T07:50:33;8.90;57.40
45044;DHT22;30784;48.490;9.688;2022-12-29T07:52:59;9.00;57.40
45044;DHT22;30784;48.490;9.688;2022-12-29T07:55:24;9.00;57.30
45044;DHT22;30784;48.490;9.688;2022-12-29T07:57:53;9.10;57.30
45044;DHT22;30784;48.490;9.688;2022-12-29T08:00:18;9.10;57.10
45044;DHT22;30784;48.490;9.688;2022-12-29T08:02:44;9.20;57.10
45044;DHT22;30784;48.490;9.688;2022-12-29T08:05:09;9.20;57.00
45044;DHT22;30784;48.490;9.688;2022-12-29T08:07:35;9.20;57.00
45044;DHT22;30784;48.490;9.688;2022-12-29T08:10:01;9.20;56.80
45044;DHT22;30784;48.490;9.688;2022-12-29T08:12:26;9.30;56.80
45044;DHT22;30784;48.490;9.688;2022-12-29T08:14:52;9.30;56.80
45044;DHT22;30784;48.490;9.688;2022-12-29T08:17:18;9.20;56.70
45044;DHT22;30784;48.490;9.688;2022-12-29T08:19:43;9.20;56.80
45044;DHT22;30784;48.490;9.688;2022-12-29T08:22:09;9.20;56.80
45044;DHT22;30784;48.490;9.688;2022-12-29T08:24:34;9.20;56.90
45044;DHT22;30784;48.490;9.688;2022-12-29T08:27:00;9.20;57.10
45044;DHT22;30784;48.490;9.688;2022-12-29T08:29:26;9.10;57.20
45044;DHT22;30784;48.490;9.688;2022-12-29T08:31:51;9.20;57.30
45044;DHT22;30784;48.490;9.688;2022-12-29T08:34:17;9.20;57.50
45044;DHT22;30784;48.490;9.688;2022-12-29T08:36:43;9.10;57.50
45044;DHT22;30784;48.490;9.688;2022-12-29T08:39:08;9.10;57.60
45044;DHT22;30784;48.490;9.688;2022-12-29T08:41:34;9.10;57.80
45044;DHT22;30784;48.490;9.688;2022-12-29T08:43:59;9.10;57.80
45044;DHT22;30784;48.490;9.688;2022-12-29T08:46:25;9.20;58.00
45044;DHT22;30784;48.490;9.688;2022-12-29T08:48:51;9.20;58.20
45044;DHT22;30784;48.490;9.688;2022-12-29T08:51:16;9.20;58.30
45044;DHT22;30784;48.490;9.688;2022-12-29T08:53:42;9.20;58.40
45044;DHT22;30784;48.490;9.688;2022-12-29T08:56:09;9.20;59.00
45044;DHT22;30784;48.490;9.688;2022-12-29T08:58:34;9.20;58.70
45044;DHT22;30784;48.490;9.688;2022-12-29T09:01:00;9.30;58.90
45044;DHT22;30784;48.490;9.688;2022-12-29T09:03:26;9.40;59.10
45044;DHT22;30784;48.490;9.688;2022-12-29T09:05:52;9.40;59.30
45044;DHT22;30784;48.490;9.688;2022-12-29T09:08:18;9.40;59.30
45044;DHT22;30784;48.490;9.688;2022-12-29T09:10:44;9.50;59.50
45044;DHT22;30784;48.490;9.688;2022-12-29T09:13:12;9.50;59.40
45044;DHT22;30784;48.490;9.688;2022-12-29T09:15:38;9.60;59.50
45044;DHT22;30784;48.490;9.688;2022-12-29T09:18:03;9.70;59.50
45044;DHT22;30784;48.490;9.688;2022-12-29T09:20:29;9.80;59.50
45044;DHT22;30784;48.490;9.688;2022-12-29T09:22:55;9.90;59.50
45044;DHT22;30784;48.490;9.688;2022-12-29T09:25:20;10.00;59.40
45044;DHT22;30784;48.490;9.688;2022-12-29T09:27:52;10.10;59.30
45044;DHT22;30784;48.490;9.688;2022-12-29T09:30:20;10.10;59.00
45044;DHT22;30784;48.490;9.688;2022-12-29T09:32:46;10.20;58.90
45044;DHT22;30784;48.490;9.688;2022-12-29T09:35:13;10.30;58.80
45044;DHT22;30784;48.490;9.688;2022-12-29T09:37:39;10.30;58.70
45044;DHT22;30784;48.490;9.688;2022-12-29T09:40:05;10.40;58.70
45044;DHT22;30784;48.490;9.688;2022-12-29T09:45:28;10.40;58.50
45044;DHT22;30784;48.490;9.688;2022-12-29T09:47:54;10.50;58.50
45044;DHT22;30784;48.490;9.688;2022-12-29T09:50:25;10.50;58.50
45044;DHT22;30784;48.490;9.688;2022-12-29T09:52:55;10.60;58.50
45044;DHT22;30784;48.490;9.688;2022-12-29T09:55:29;10.70;58.50
45044;DHT22;30784;48.490;9.688;2022-12-29T09:58:04;10.70;58.50
45044;DHT22;30784;48.490;9.688;2022-12-29T10:00:40;10.80;58.50
45044;DHT22;30784;48.490;9.688;2022-12-29T10:03:16;10.80;58.30
45044;DHT22;30784;48.490;9.688;2022-12-29T10:06:24;10.90;58.20
45044;DHT22;30784;48.490;9.688;2022-12-29T10:09:25;11.00;58.10
45044;DHT22;30784;48.490;9.688;2022-12-29T10:17:55;11.10;57.70
45044;DHT22;30784;48.490;9.688;2022-12-29T10:20:57;11.10;57.70
45044;DHT22;30784;48.490;9.688;2022-12-29T10:23:29;11.10;57.80
45044;DHT22;30784;48.490;9.688;2022-12-29T10:25:58;11.20;57.80
45044;DHT22;30784;48.490;9.688;2022-12-29T10:28:24;11.20;57.70
45044;DHT22;30784;48.490;9.688;2022-12-29T10:30:57;11.20;57.70
45044;DHT22;30784;48.490;9.688;2022-12-29T10:33:30;11.20;57.70
45044;DHT22;30784;48.490;9.688;2022-12-29T10:35:57;11.30;57.80
45044;DHT22;30784;48.490;9.688;2022-12-29T10:41:09;11.40;57.40
45044;DHT22;30784;48.490;9.688;2022-12-29T10:43:45;11.40;57.70
45044;DHT22;30784;48.490;9.688;2022-12-29T10:46:34;11.40;57.60
45044;DHT22;30784;48.490;9.688;2022-12-29T10:49:01;11.50;57.50
45044;DHT22;30784;48.490;9.688;2022-12-29T10:51:31;11.50;57.50
45044;DHT22;30784;48.490;9.688;2022-12-29T10:54:06;11.50;57.50
45044;DHT22;30784;48.490;9.688;2022-12-29T10:56:39;11.60;57.40
45044;DHT22;30784;48.490;9.688;2022-12-29T10:59:23;11.60;57.40
45044;DHT22;30784;48.490;9.688;2022-12-29T11:07:23;11.70;57.20
45044;DHT22;30784;48.490;9.688;2022-12-29T11:09:49;11.70;57.00
45044;DHT22;30784;48.490;9.688;2022-12-29T11:12:23;11.80;57.00
45044;DHT22;30784;48.490;9.688;2022-12-29T11:17:26;11.80;56.80
45044;DHT22;30784;48.490;9.688;2022-12-29T11:19:52;11.90;56.70
45044;DHT22;30784;48.490;9.688;2022-12-29T11:22:22;11.90;56.80
45044;DHT22;30784;48.490;9.688;2022-12-29T11:24:50;11.90;56.70
45044;DHT22;30784;48.490;9.688;2022-12-29T11:27:24;11.90;56.80
45044;DHT22;30784;48.490;9.688;2022-12-29T11:29:52;11.90;56.60
45044;DHT22;30784;48.490;9.688;2022-12-29T11:32:23;12.00;56.60
45044;DHT22;30784;48.490;9.688;2022-12-29T11:34:49;12.00;56.60
45044;DHT22;30784;48.490;9.688;2022-12-29T11:37:18;12.00;56.60
45044;DHT22;30784;48.490;9.688;2022-12-29T11:39:47;12.00;56.60
45044;DHT22;30784;48.490;9.688;2022-12-29T11:42:18;12.00;56.70
45044;DHT22;30784;48.490;9.688;2022-12-29T11:44:47;12.00;56.70
45044;DHT22;30784;48.490;9.688;2022-12-29T11:47:28;12.00;56.80
45044;DHT22;30784;48.490;9.688;2022-12-29T11:49:58;12.00;56.90
45044;DHT22;30784;48.490;9.688;2022-12-29T11:52:27;12.00;57.00
45044;DHT22;30784;48.490;9.688;2022-12-29T11:54:54;12.00;57.20
45044;DHT22;30784;48.490;9.688;2022-12-29T11:57:22;12.10;57.50
45044;DHT22;30784;48.490;9.688;2022-12-29T11:59:51;12.10;58.20
45044;DHT22;30784;48.490;9.688;2022-12-29T12:04:45;12.10;58.00
45044;DHT22;30784;48.490;9.688;2022-12-29T12:07:17;12.10;58.00
45044;DHT22;30784;48.490;9.688;2022-12-29T12:09:49;12.20;58.10
45044;DHT22;30784;48.490;9.688;2022-12-29T12:14:56;12.20;58.00
45044;DHT22;30784;48.490;9.688;2022-12-29T12:17:50;12.20;57.90
45044;DHT22;30784;48.490;9.688;2022-12-29T12:20:18;12.30;57.80
45044;DHT22;30784;48.490;9.688;2022-12-29T12:25:43;12.30;57.70
45044;DHT22;30784;48.490;9.688;2022-12-29T12:28:25;12.40;57.50
45044;DHT22;30784;48.490;9.688;2022-12-29T12:30:56;12.40;57.50
45044;DHT22;30784;48.490;9.688;2022-12-29T12:33:28;12.40;57.40
45044;DHT22;30784;48.490;9.688;2022-12-29T12:41:16;12.30;57.90
45044;DHT22;30784;48.490;9.688;2022-12-29T12:44:07;12.30;58.60
45044;DHT22;30784;48.490;9.688;2022-12-29T12:52:17;12.30;58.40
45044;DHT22;30784;48.490;9.688;2022-12-29T12:58:17;12.20;58.40
45044;DHT22;30784;48.490;9.688;2022-12-29T13:00:52;12.20;58.50
45044;DHT22;30784;48.490;9.688;2022-12-29T13:08:59;12.20;58.90
45044;DHT22;30784;48.490;9.688;2022-12-29T13:11:51;12.20;59.20
45044;DHT22;30784;48.490;9.688;2022-12-29T13:14:55;12.20;59.00
45044;DHT22;30784;48.490;9.688;2022-12-29T13:17:45;12.20;59.10
45044;DHT22;30784;48.490;9.688;2022-12-29T13:20:29;12.20;59.30
45044;DHT22;30784;48.490;9.688;2022-12-29T13:25:47;12.20;59.50
45044;DHT22;30784;48.490;9.688;2022-12-29T13:31:17;12.20;59.70
45044;DHT22;30784;48.490;9.688;2022-12-29T13:34:00;12.20;60.10
45044;DHT22;30784;48.490;9.688;2022-12-29T13:36:43;12.20;60.20
45044;DHT22;30784;48.490;9.688;2022-12-29T13:41:43;12.20;60.50
45044;DHT22;30784;48.490;9.688;2022-12-29T13:44:31;12.20;60.50
45044;DHT22;30784;48.490;9.688;2022-12-29T13:47:01;12.20;60.10
45044;DHT22;30784;48.490;9.688;2022-12-29T13:49:30;12.20;60.60
45044;DHT22;30784;48.490;9.688;2022-12-29T13:52:13;12.30;60.70
45044;DHT22;30784;48.490;9.688;2022-12-29T13:57:34;12.30;60.50
45044;DHT22;30784;48.490;9.688;2022-12-29T14:00:11;12.30;60.60
45044;DHT22;30784;48.490;9.688;2022-12-29T14:07:46;12.30;60.40
45044;DHT22;30784;48.490;9.688;2022-12-29T14:10:47;12.40;60.60
45044;DHT22;30784;48.490;9.688;2022-12-29T14:13:25;12.40;60.10
45044;DHT22;30784;48.490;9.688;2022-12-29T14:15:54;12.40;60.40
45044;DHT22;30784;48.490;9.688;2022-12-29T14:18:23;12.40;60.40
45044;DHT22;30784;48.490;9.688;2022-12-29T14:20:58;12.40;60.30
45044;DHT22;30784;48.490;9.688;2022-12-29T14:28:36;12.40;60.40
45044;DHT22;30784;48.490;9.688;2022-12-29T14:33:41;12.40;60.50
45044;DHT22;30784;48.490;9.688;2022-12-29T14:38:59;12.40;60.30
45044;DHT22;30784;48.490;9.688;2022-12-29T14:41:40;12.30;60.30
45044;DHT22;30784;48.490;9.688;2022-12-29T14:49:21;12.30;60.10
45044;DHT22;30784;48.490;9.688;2022-12-29T14:51:50;12.30;60.20
45044;DHT22;30784;48.490;9.688;2022-12-29T14:57:04;12.20;60.10
45044;DHT22;30784;48.490;9.688;2022-12-29T14:59:32;12.20;60.30
45044;DHT22;30784;48.490;9.688;2022-12-29T15:02:01;12.20;60.10
45044;DHT22;30784;48.490;9.688;2022-12-29T15:04:33;12.20;60.10
45044;DHT22;30784;48.490;9.688;2022-12-29T15:07:00;12.20;59.90
45044;DHT22;30784;48.490;9.688;2022-12-29T15:09:43;12.20;59.90
45044;DHT22;30784;48.490;9.688;2022-12-29T15:12:42;12.10;59.90
45044;DHT22;30784;48.490;9.688;2022-12-29T15:15:27;12.10;59.80
45044;DHT22;30784;48.490;9.688;2022-12-29T15:17:55;12.10;59.90
45044;DHT22;30784;48.490;9.688;2022-12-29T15:20:29;12.10;59.90
45044;DHT22;30784;48.490;9.688;2022-12-29T15:23:16;12.10;60.00
45044;DHT22;30784;48.490;9.688;2022-12-29T15:28:50;12.10;60.00
45044;DHT22;30784;48.490;9.688;2022-12-29T15:33:48;12.10;59.90
45044;DHT22;30784;48.490;9.688;2022-12-29T15:36:26;12.00;59.90
45044;DHT22;30784;48.490;9.688;2022-12-29T15:38:52;12.10;59.90
45044;DHT22;30784;48.490;9.688;2022-12-29T15:41:23;12.00;59.90
45044;DHT22;30784;48.490;9.688;2022-12-29T15:46:18;12.00;59.90
45044;DHT22;30784;48.490;9.688;2022-12-29T15:48:43;12.00;59.90
45044;DHT22;30784;48.490;9.688;2022-12-29T15:51:22;11.90;59.90
45044;DHT22;30784;48.490;9.688;2022-12-29T15:53:51;11.90;59.90
45044;DHT22;30784;48.490;9.688;2022-12-29T15:56:17;11.90;59.80
45044;DHT22;30784;48.490;9.688;2022-12-29T15:58:49;11.80;59.80
45044;DHT22;30784;48.490;9.688;2022-12-29T16:01:33;11.80;59.80
45044;DHT22;30784;48.490;9.688;2022-12-29T16:04:03;11.80;59.80
45044;DHT22;30784;48.490;9.688;2022-12-29T16:06:34;11.80;59.80
45044;DHT22;30784;48.490;9.688;2022-12-29T16:09:04;11.80;59.90
45044;DHT22;30784;48.490;9.688;2022-12-29T16:11:38;11.70;59.90
45044;DHT22;30784;48.490;9.688;2022-12-29T16:14:14;11.70;59.90
45044;DHT22;30784;48.490;9.688;2022-12-29T16:16:42;11.70;59.90
45044;DHT22;30784;48.490;9.688;2022-12-29T16:21:57;11.60;60.00
45044;DHT22;30784;48.490;9.688;2022-12-29T16:24:26;11.60;60.00
45044;DHT22;30784;48.490;9.688;2022-12-29T16:29:28;11.50;60.10
45044;DHT22;30784;48.490;9.688;2022-12-29T16:31:56;11.50;60.20
45044;DHT22;30784;48.490;9.688;2022-12-29T16:37:59;11.40;60.20
45044;DHT22;30784;48.490;9.688;2022-12-29T16:39:50;11.40;60.30
45044;DHT22;30784;48.490;9.688;2022-12-29T16:42:36;11.40;60.30
45044;DHT22;30784;48.490;9.688;2022-12-29T17:00:34;11.40;59.90
45044;DHT22;30784;48.490;9.688;2022-12-29T17:03:01;10.90;63.00
45044;DHT22;30784;48.490;9.688;2022-12-29T17:05:28;11.00;62.20
45044;DHT22;30784;48.490;9.688;2022-12-29T17:07:53;11.20;61.70
45044;DHT22;30784;48.490;9.688;2022-12-29T17:10:20;11.20;61.30
45044;DHT22;30784;48.490;9.688;2022-12-29T17:12:47;11.30;61.10
45044;DHT22;30784;48.490;9.688;2022-12-29T17:15:26;11.30;61.00
45044;DHT22;30784;48.490;9.688;2022-12-29T17:17:56;11.30;60.80
45044;DHT22;30784;48.490;9.688;2022-12-29T17:20:24;11.30;60.80
45044;DHT22;30784;48.490;9.688;2022-12-29T17:22:50;11.30;60.80
45044;DHT22;30784;48.490;9.688;2022-12-29T17:25:20;11.30;60.80
45044;DHT22;30784;48.490;9.688;2022-12-29T17:27:57;11.40;60.80
45044;DHT22;30784;48.490;9.688;2022-12-29T17:30:24;11.30;60.70
45044;DHT22;30784;48.490;9.688;2022-12-29T17:32:53;11.30;60.70
45044;DHT22;30784;48.490;9.688;2022-12-29T17:35:21;11.30;60.70
45044;DHT22;30784;48.490;9.688;2022-12-29T17:37:47;11.30;60.70
45044;DHT22;30784;48.490;9.688;2022-12-29T17:40:18;11.30;60.70
45044;DHT22;30784;48.490;9.688;2022-12-29T17:42:51;11.30;60.70
45044;DHT22;30784;48.490;9.688;2022-12-29T17:45:22;11.30;60.60
45044;DHT22;30784;48.490;9.688;2022-12-29T17:47:48;11.30;60.60
45044;DHT22;30784;48.490;9.688;2022-12-29T17:50:20;11.30;60.60
45044;DHT22;30784;48.490;9.688;2022-12-29T17:52:53;11.30;60.60
45044;DHT22;30784;48.490;9.688;2022-12-29T17:55:21;11.30;60.70
45044;DHT22;30784;48.490;9.688;2022-12-29T17:57:47;11.30;60.70
45044;DHT22;30784;48.490;9.688;2022-12-29T18:00:24;11.30;60.70
45044;DHT22;30784;48.490;9.688;2022-12-29T18:02:52;11.30;60.70
45044;DHT22;30784;48.490;9.688;2022-12-29T18:05:30;11.20;60.70
45044;DHT22;30784;48.490;9.688;2022-12-29T18:07:58;11.30;60.70
45044;DHT22;30784;48.490;9.688;2022-12-29T18:10:25;11.30;60.80
45044;DHT22;30784;48.490;9.688;2022-12-29T18:12:54;11.30;60.80
45044;DHT22;30784;48.490;9.688;2022-12-29T18:15:27;11.20;60.70